sensor_id;sensor_type;location;lat;lon;timestamp;P1;durP1;ratioP1;P2;durP2;ratioP2
13083;SDS011;6608;48.790;9.198;2023-07-30T00:00:36;152.13;;;65.90;;
13083;SDS011;6608;48.790;9.198;2023-07-30T00:03:02;152.07;;;63.83;;
13083;SDS011;6608;48.790;9.198;2023-07-30T00:05:28;149.17;;;64.20;;
13083;SDS011;6608;48.790;9.198;2023-07-30T00:07:55;150.70;;;64.43;;
13083;SDS011;6608;48.790;9.198;2023-07-30T00:10:23;149.57;;;64.57;;
13083;SDS011;6608;48.790;9.198;2023-07-30T00:12:49;149.00;;;63.83;;
13083;SDS011;6608;48.790;9.198;2023-07-30T00:15:16;149.30;;;64.20;;
13083;SDS011;6608;48.790;9.198;2023-07-30T00:17:42;151.67;;;65.10;;
13083;SDS011;6608;48.790;9.198;2023-07-30T00:20:09;149.70;;;64.20;;
13083;SDS011;6608;48.790;9.198;2023-07-30T00:22:35;151.63;;;64.53;;
13083;SDS011;6608;48.790;9.198;2023-07-30T00:25:02;150.63;;;63.67;;
13083;SDS011;6608;48.790;9.198;2023-07-30T00:27:30;155.30;;;64.33;;
13083;SDS011;6608;48.790;9.198;2023-07-30T00:29:57;154.60;;;64.87;;
13083;SDS011;6608;48.790;9.198;2023-07-30T00:32:23;155.07;;;64.20;;
13083;SDS011;6608;48.790;9.198;2023-07-30T00:34:50;158.67;;;64.23;;
13083;SDS011;6608;48.790;9.198;2023-07-30T00:37:16;163.47;;;65.07;;
13083;SDS011;6608;48.790;9.198;2023-07-30T00:39:43;169.57;;;67.00;;
13083;SDS011;6608;48.790;9.198;2023-07-30T00:42:09;171.00;;;66.00;;
13083;SDS011;6608;48.790;9.198;2023-07-30T00:44:37;161.33;;;65.17;;
13083;SDS011;6608;48.790;9.198;2023-07-30T00:47:04;152.70;;;65.10;;
13083;SDS011;6608;48.790;9.198;2023-07-30T00:49:30;152.03;;;63.93;;
13083;SDS011;6608;48.790;9.198;2023-07-30T00:51:56;149.20;;;64.30;;
13083;SDS011;6608;48.790;9.198;2023-07-30T00:54:23;148.10;;;64.27;;
13083;SDS011;6608;48.790;9.198;2023-07-30T00:56:51;146.80;;;63.77;;
13083;SDS011;6608;48.790;9.198;2023-07-30T00:59:18;147.23;;;63.27;;
13083;SDS011;6608;48.790;9.198;2023-07-30T01:01:46;147.10;;;63.93;;
13083;SDS011;6608;48.790;9.198;2023-07-30T01:04:13;149.07;;;64.10;;
13083;SDS011;6608;48.790;9.198;2023-07-30T01:06:40;148.93;;;64.83;;
13083;SDS011;6608;48.790;9.198;2023-07-30T01:09:07;146.73;;;63.53;;
13083;SDS011;6608;48.790;9.198;2023-07-30T01:11:33;146.40;;;65.03;;
13083;SDS011;6608;48.790;9.198;2023-07-30T01:14:00;149.97;;;64.27;;
13083;SDS011;6608;48.790;9.198;2023-07-30T01:16:26;146.97;;;63.97;;
13083;SDS011;6608;48.790;9.198;2023-07-30T01:18:54;147.27;;;64.37;;
13083;SDS011;6608;48.790;9.198;2023-07-30T01:21:22;147.20;;;64.57;;
13083;SDS011;6608;48.790;9.198;2023-07-30T01:23:49;146.43;;;64.33;;
13083;SDS011;6608;48.790;9.198;2023-07-30T01:26:17;146.27;;;64.20;;
13083;SDS011;6608;48.790;9.198;2023-07-30T01:28:46;147.30;;;64.93;;
13083;SDS011;6608;48.790;9.198;2023-07-30T01:31:14;148.60;;;65.03;;
13083;SDS011;6608;48.790;9.198;2023-07-30T01:33:41;149.03;;;65.07;;
13083;SDS011;6608;48.790;9.198;2023-07-30T01:36:08;146.33;;;64.27;;
13083;SDS011;6608;48.790;9.198;2023-07-30T01:38:38;146.83;;;64.63;;
13083;SDS011;6608;48.790;9.198;2023-07-30T01:41:05;149.60;;;65.70;;
13083;SDS011;6608;48.790;9.198;2023-07-30T01:43:32;146.47;;;64.77;;
13083;SDS011;6608;48.790;9.198;2023-07-30T01:45:58;147.90;;;64.93;;
13083;SDS011;6608;48.790;9.198;2023-07-30T01:48:25;147.23;;;65.17;;
13083;SDS011;6608;48.790;9.198;2023-07-30T01:50:51;149.17;;;65.17;;
13083;SDS011;6608;48.790;9.198;2023-07-30T01:53:17;146.73;;;64.80;;
13083;SDS011;6608;48.790;9.198;2023-07-30T01:55:45;147.13;;;65.27;;
13083;SDS011;6608;48.790;9.198;2023-07-30T01:58:12;147.83;;;65.03;;
13083;SDS011;6608;48.790;9.198;2023-07-30T02:00:39;147.63;;;64.67;;
13083;SDS011;6608;48.790;9.198;2023-07-30T02:03:05;154.50;;;65.20;;
13083;SDS011;6608;48.790;9.198;2023-07-30T02:05:31;147.80;;;65.03;;
13083;SDS011;6608;48.790;9.198;2023-07-30T02:07:58;149.27;;;65.40;;
13083;SDS011;6608;48.790;9.198;2023-07-30T02:10:25;148.33;;;64.97;;
13083;SDS011;6608;48.790;9.198;2023-07-30T02:12:53;147.40;;;65.10;;
13083;SDS011;6608;48.790;9.198;2023-07-30T02:15:20;150.23;;;65.83;;
13083;SDS011;6608;48.790;9.198;2023-07-30T02:17:46;150.53;;;65.50;;
13083;SDS011;6608;48.790;9.198;2023-07-30T02:20:13;148.53;;;65.50;;
13083;SDS011;6608;48.790;9.198;2023-07-30T02:22:39;150.03;;;65.77;;
13083;SDS011;6608;48.790;9.198;2023-07-30T02:25:06;149.93;;;65.50;;
13083;SDS011;6608;48.790;9.198;2023-07-30T02:27:32;149.00;;;66.03;;
13083;SDS011;6608;48.790;9.198;2023-07-30T02:30:00;148.90;;;65.67;;
13083;SDS011;6608;48.790;9.198;2023-07-30T02:32:26;148.47;;;65.70;;
13083;SDS011;6608;48.790;9.198;2023-07-30T02:34:54;149.97;;;67.13;;
13083;SDS011;6608;48.790;9.198;2023-07-30T02:37:20;148.47;;;65.37;;
13083;SDS011;6608;48.790;9.198;2023-07-30T02:39:46;152.00;;;65.27;;
13083;SDS011;6608;48.790;9.198;2023-07-30T02:42:13;148.63;;;65.33;;
13083;SDS011;6608;48.790;9.198;2023-07-30T02:44:39;148.93;;;65.60;;
13083;SDS011;6608;48.790;9.198;2023-07-30T02:47:07;151.00;;;66.53;;
13083;SDS011;6608;48.790;9.198;2023-07-30T02:49:33;155.90;;;66.90;;
13083;SDS011;6608;48.790;9.198;2023-07-30T02:52:00;150.37;;;66.90;;
13083;SDS011;6608;48.790;9.198;2023-07-30T02:54:26;150.23;;;65.47;;
13083;SDS011;6608;48.790;9.198;2023-07-30T02:56:53;151.73;;;65.80;;
13083;SDS011;6608;48.790;9.198;2023-07-30T02:59:19;152.10;;;65.80;;
13083;SDS011;6608;48.790;9.198;2023-07-30T03:01:45;154.80;;;66.17;;
13083;SDS011;6608;48.790;9.198;2023-07-30T03:04:13;155.67;;;66.80;;
13083;SDS011;6608;48.790;9.198;2023-07-30T03:06:40;155.53;;;67.13;;
13083;SDS011;6608;48.790;9.198;2023-07-30T03:09:06;154.83;;;66.23;;
13083;SDS011;6608;48.790;9.198;2023-07-30T03:11:33;157.50;;;66.47;;
13083;SDS011;6608;48.790;9.198;2023-07-30T03:13:59;157.57;;;66.70;;
13083;SDS011;6608;48.790;9.198;2023-07-30T03:16:25;160.23;;;66.23;;
13083;SDS011;6608;48.790;9.198;2023-07-30T03:18:52;164.30;;;67.13;;
13083;SDS011;6608;48.790;9.198;2023-07-30T03:21:20;169.53;;;67.60;;
13083;SDS011;6608;48.790;9.198;2023-07-30T03:23:46;170.53;;;67.20;;
13083;SDS011;6608;48.790;9.198;2023-07-30T03:26:13;170.70;;;67.90;;
13083;SDS011;6608;48.790;9.198;2023-07-30T03:28:39;167.80;;;67.47;;
13083;SDS011;6608;48.790;9.198;2023-07-30T03:31:06;153.53;;;65.27;;
13083;SDS011;6608;48.790;9.198;2023-07-30T03:33:32;153.10;;;66.03;;
13083;SDS011;6608;48.790;9.198;2023-07-30T03:35:59;154.53;;;65.90;;
13083;SDS011;6608;48.790;9.198;2023-07-30T03:38:27;155.37;;;65.80;;
13083;SDS011;6608;48.790;9.198;2023-07-30T03:40:54;156.27;;;66.37;;
13083;SDS011;6608;48.790;9.198;2023-07-30T03:43:20;157.33;;;67.00;;
13083;SDS011;6608;48.790;9.198;2023-07-30T03:45:47;158.40;;;65.87;;
13083;SDS011;6608;48.790;9.198;2023-07-30T03:48:13;162.87;;;66.43;;
13083;SDS011;6608;48.790;9.198;2023-07-30T03:50:40;170.87;;;67.17;;
13083;SDS011;6608;48.790;9.198;2023-07-30T03:53:06;160.50;;;66.10;;
13083;SDS011;6608;48.790;9.198;2023-07-30T03:55:34;162.50;;;65.77;;
13083;SDS011;6608;48.790;9.198;2023-07-30T03:58:00;166.80;;;67.53;;
13083;SDS011;6608;48.790;9.198;2023-07-30T04:00:27;171.23;;;66.67;;
13083;SDS011;6608;48.790;9.198;2023-07-30T04:02:54;152.40;;;66.57;;
13083;SDS011;6608;48.790;9.198;2023-07-30T04:05:20;151.87;;;64.83;;
13083;SDS011;6608;48.790;9.198;2023-07-30T04:07:47;149.33;;;65.83;;
13083;SDS011;6608;48.790;9.198;2023-07-30T04:10:13;147.00;;;64.30;;
13083;SDS011;6608;48.790;9.198;2023-07-30T04:12:44;146.93;;;64.53;;
13083;SDS011;6608;48.790;9.198;2023-07-30T04:15:10;145.80;;;64.23;;
13083;SDS011;6608;48.790;9.198;2023-07-30T04:17:37;146.03;;;64.67;;
13083;SDS011;6608;48.790;9.198;2023-07-30T04:20:04;146.80;;;65.73;;
13083;SDS011;6608;48.790;9.198;2023-07-30T04:22:31;144.77;;;63.87;;
13083;SDS011;6608;48.790;9.198;2023-07-30T04:24:57;147.00;;;64.37;;
13083;SDS011;6608;48.790;9.198;2023-07-30T04:27:24;145.63;;;64.80;;
13083;SDS011;6608;48.790;9.198;2023-07-30T04:29:51;146.30;;;64.77;;
13083;SDS011;6608;48.790;9.198;2023-07-30T04:32:18;145.50;;;64.30;;
13083;SDS011;6608;48.790;9.198;2023-07-30T04:34:44;146.67;;;64.47;;
13083;SDS011;6608;48.790;9.198;2023-07-30T04:37:11;144.63;;;64.23;;
13083;SDS011;6608;48.790;9.198;2023-07-30T04:39:37;144.27;;;64.43;;
13083;SDS011;6608;48.790;9.198;2023-07-30T04:42:04;143.83;;;64.00;;
13083;SDS011;6608;48.790;9.198;2023-07-30T04:44:30;147.40;;;64.13;;
13083;SDS011;6608;48.790;9.198;2023-07-30T04:46:58;144.73;;;64.10;;
13083;SDS011;6608;48.790;9.198;2023-07-30T04:49:24;146.50;;;63.93;;
13083;SDS011;6608;48.790;9.198;2023-07-30T04:51:51;142.93;;;64.03;;
13083;SDS011;6608;48.790;9.198;2023-07-30T04:54:17;144.50;;;64.13;;
13083;SDS011;6608;48.790;9.198;2023-07-30T04:56:44;143.03;;;63.87;;
13083;SDS011;6608;48.790;9.198;2023-07-30T04:59:10;145.10;;;64.17;;
13083;SDS011;6608;48.790;9.198;2023-07-30T05:01:36;143.50;;;63.67;;
13083;SDS011;6608;48.790;9.198;2023-07-30T05:04:04;143.77;;;64.23;;
13083;SDS011;6608;48.790;9.198;2023-07-30T05:06:31;144.33;;;64.17;;
13083;SDS011;6608;48.790;9.198;2023-07-30T05:08:57;145.93;;;64.17;;
13083;SDS011;6608;48.790;9.198;2023-07-30T05:11:24;142.87;;;63.67;;
13083;SDS011;6608;48.790;9.198;2023-07-30T05:13:50;143.43;;;64.03;;
13083;SDS011;6608;48.790;9.198;2023-07-30T05:16:17;148.80;;;65.40;;
13083;SDS011;6608;48.790;9.198;2023-07-30T05:18:43;145.07;;;64.00;;
13083;SDS011;6608;48.790;9.198;2023-07-30T05:21:11;142.30;;;63.67;;
13083;SDS011;6608;48.790;9.198;2023-07-30T05:23:37;144.90;;;63.57;;
13083;SDS011;6608;48.790;9.198;2023-07-30T05:26:04;145.37;;;64.03;;
13083;SDS011;6608;48.790;9.198;2023-07-30T05:28:30;145.77;;;64.73;;
13083;SDS011;6608;48.790;9.198;2023-07-30T05:30:58;147.73;;;64.13;;
13083;SDS011;6608;48.790;9.198;2023-07-30T05:33:24;144.00;;;65.00;;
13083;SDS011;6608;48.790;9.198;2023-07-30T05:35:50;142.67;;;63.93;;
13083;SDS011;6608;48.790;9.198;2023-07-30T05:38:18;143.07;;;63.63;;
13083;SDS011;6608;48.790;9.198;2023-07-30T05:40:45;145.67;;;63.37;;
13083;SDS011;6608;48.790;9.198;2023-07-30T05:43:11;142.23;;;63.37;;
13083;SDS011;6608;48.790;9.198;2023-07-30T05:45:37;144.37;;;64.90;;
13083;SDS011;6608;48.790;9.198;2023-07-30T05:48:04;147.13;;;64.10;;
13083;SDS011;6608;48.790;9.198;2023-07-30T05:50:30;143.30;;;63.90;;
13083;SDS011;6608;48.790;9.198;2023-07-30T05:52:57;145.30;;;63.33;;
13083;SDS011;6608;48.790;9.198;2023-07-30T05:55:25;143.43;;;63.77;;
13083;SDS011;6608;48.790;9.198;2023-07-30T05:57:51;146.30;;;63.37;;
13083;SDS011;6608;48.790;9.198;2023-07-30T06:00:35;143.47;;;63.60;;
13083;SDS011;6608;48.790;9.198;2023-07-30T06:03:02;145.50;;;63.10;;
13083;SDS011;6608;48.790;9.198;2023-07-30T06:05:28;147.53;;;63.97;;
13083;SDS011;6608;48.790;9.198;2023-07-30T06:07:54;144.23;;;64.13;;
13083;SDS011;6608;48.790;9.198;2023-07-30T06:10:21;142.77;;;63.43;;
13083;SDS011;6608;48.790;9.198;2023-07-30T06:12:49;144.63;;;64.70;;
13083;SDS011;6608;48.790;9.198;2023-07-30T06:15:16;144.47;;;63.53;;
13083;SDS011;6608;48.790;9.198;2023-07-30T06:17:42;143.53;;;63.97;;
13083;SDS011;6608;48.790;9.198;2023-07-30T06:20:09;144.53;;;63.97;;
13083;SDS011;6608;48.790;9.198;2023-07-30T06:22:35;144.57;;;64.20;;
13083;SDS011;6608;48.790;9.198;2023-07-30T06:25:02;145.47;;;65.37;;
13083;SDS011;6608;48.790;9.198;2023-07-30T06:27:28;145.43;;;64.30;;
13083;SDS011;6608;48.790;9.198;2023-07-30T06:29:56;145.33;;;64.60;;
13083;SDS011;6608;48.790;9.198;2023-07-30T06:32:23;147.33;;;65.23;;
13083;SDS011;6608;48.790;9.198;2023-07-30T06:34:49;145.43;;;64.23;;
13083;SDS011;6608;48.790;9.198;2023-07-30T06:37:16;143.97;;;63.93;;
13083;SDS011;6608;48.790;9.198;2023-07-30T06:39:42;142.83;;;63.83;;
13083;SDS011;6608;48.790;9.198;2023-07-30T06:42:09;142.37;;;63.70;;
13083;SDS011;6608;48.790;9.198;2023-07-30T06:44:35;144.27;;;65.07;;
13083;SDS011;6608;48.790;9.198;2023-07-30T06:47:03;147.10;;;64.40;;
13083;SDS011;6608;48.790;9.198;2023-07-30T06:49:30;146.23;;;64.70;;
13083;SDS011;6608;48.790;9.198;2023-07-30T06:51:59;145.27;;;65.00;;
13083;SDS011;6608;48.790;9.198;2023-07-30T06:54:25;145.20;;;64.37;;
13083;SDS011;6608;48.790;9.198;2023-07-30T06:56:51;145.30;;;64.60;;
13083;SDS011;6608;48.790;9.198;2023-07-30T06:59:18;144.80;;;65.40;;
13083;SDS011;6608;48.790;9.198;2023-07-30T07:01:44;146.27;;;64.03;;
13083;SDS011;6608;48.790;9.198;2023-07-30T07:04:12;145.93;;;64.10;;
13083;SDS011;6608;48.790;9.198;2023-07-30T07:06:39;142.20;;;63.27;;
13083;SDS011;6608;48.790;9.198;2023-07-30T07:09:05;145.47;;;64.70;;
13083;SDS011;6608;48.790;9.198;2023-07-30T07:11:31;147.77;;;64.13;;
13083;SDS011;6608;48.790;9.198;2023-07-30T07:13:58;144.67;;;65.00;;
13083;SDS011;6608;48.790;9.198;2023-07-30T07:16:24;145.77;;;64.67;;
13083;SDS011;6608;48.790;9.198;2023-07-30T07:18:51;144.67;;;65.40;;
13083;SDS011;6608;48.790;9.198;2023-07-30T07:21:18;146.13;;;66.17;;
13083;SDS011;6608;48.790;9.198;2023-07-30T07:23:45;145.13;;;66.07;;
13083;SDS011;6608;48.790;9.198;2023-07-30T07:26:12;146.90;;;63.83;;
13083;SDS011;6608;48.790;9.198;2023-07-30T07:28:38;147.00;;;64.10;;
13083;SDS011;6608;48.790;9.198;2023-07-30T07:31:05;144.73;;;64.87;;
13083;SDS011;6608;48.790;9.198;2023-07-30T07:33:31;146.57;;;64.83;;
13083;SDS011;6608;48.790;9.198;2023-07-30T07:36:04;144.37;;;63.87;;
13083;SDS011;6608;48.790;9.198;2023-07-30T07:38:32;148.67;;;64.60;;
13083;SDS011;6608;48.790;9.198;2023-07-30T07:40:59;146.37;;;63.73;;
13083;SDS011;6608;48.790;9.198;2023-07-30T07:43:25;144.23;;;63.93;;
13083;SDS011;6608;48.790;9.198;2023-07-30T07:45:52;147.73;;;64.53;;
13083;SDS011;6608;48.790;9.198;2023-07-30T07:48:19;145.87;;;63.67;;
13083;SDS011;6608;48.790;9.198;2023-07-30T07:50:45;144.13;;;62.93;;
13083;SDS011;6608;48.790;9.198;2023-07-30T07:53:12;142.80;;;63.13;;
13083;SDS011;6608;48.790;9.198;2023-07-30T07:55:39;144.90;;;64.17;;
13083;SDS011;6608;48.790;9.198;2023-07-30T07:58:06;143.73;;;63.53;;
13083;SDS011;6608;48.790;9.198;2023-07-30T08:00:32;142.90;;;62.80;;
13083;SDS011;6608;48.790;9.198;2023-07-30T08:02:58;144.23;;;64.17;;
13083;SDS011;6608;48.790;9.198;2023-07-30T08:05:25;144.30;;;63.77;;
13083;SDS011;6608;48.790;9.198;2023-07-30T08:07:52;143.03;;;62.97;;
13083;SDS011;6608;48.790;9.198;2023-07-30T08:10:19;145.33;;;64.27;;
13083;SDS011;6608;48.790;9.198;2023-07-30T08:12:46;143.97;;;63.57;;
13083;SDS011;6608;48.790;9.198;2023-07-30T08:15:15;144.53;;;63.30;;
13083;SDS011;6608;48.790;9.198;2023-07-30T08:17:42;145.37;;;64.23;;
13083;SDS011;6608;48.790;9.198;2023-07-30T08:20:08;145.33;;;63.47;;
13083;SDS011;6608;48.790;9.198;2023-07-30T08:22:35;145.43;;;63.83;;
13083;SDS011;6608;48.790;9.198;2023-07-30T08:25:01;146.40;;;64.43;;
13083;SDS011;6608;48.790;9.198;2023-07-30T08:27:28;146.07;;;64.13;;
13083;SDS011;6608;48.790;9.198;2023-07-30T08:29:56;145.97;;;65.20;;
13083;SDS011;6608;48.790;9.198;2023-07-30T08:32:23;146.73;;;64.27;;
13083;SDS011;6608;48.790;9.198;2023-07-30T08:34:49;145.83;;;64.40;;
13083;SDS011;6608;48.790;9.198;2023-07-30T08:37:15;146.33;;;64.57;;
13083;SDS011;6608;48.790;9.198;2023-07-30T08:39:42;146.80;;;65.93;;
13083;SDS011;6608;48.790;9.198;2023-07-30T08:42:08;148.40;;;65.43;;
13083;SDS011;6608;48.790;9.198;2023-07-30T08:44:35;148.27;;;65.60;;
13083;SDS011;6608;48.790;9.198;2023-07-30T08:47:03;146.87;;;65.03;;
13083;SDS011;6608;48.790;9.198;2023-07-30T08:49:30;148.17;;;65.80;;
13083;SDS011;6608;48.790;9.198;2023-07-30T08:51:58;147.83;;;65.50;;
13083;SDS011;6608;48.790;9.198;2023-07-30T08:54:24;147.67;;;66.13;;
13083;SDS011;6608;48.790;9.198;2023-07-30T08:56:52;148.33;;;65.47;;
13083;SDS011;6608;48.790;9.198;2023-07-30T08:59:19;147.67;;;65.20;;
13083;SDS011;6608;48.790;9.198;2023-07-30T09:01:48;147.37;;;65.20;;
13083;SDS011;6608;48.790;9.198;2023-07-30T09:04:18;146.97;;;65.13;;
13083;SDS011;6608;48.790;9.198;2023-07-30T09:06:47;149.60;;;65.83;;
13083;SDS011;6608;48.790;9.198;2023-07-30T09:09:14;150.70;;;65.73;;
13083;SDS011;6608;48.790;9.198;2023-07-30T09:11:40;147.80;;;65.43;;
13083;SDS011;6608;48.790;9.198;2023-07-30T09:14:06;149.13;;;66.03;;
13083;SDS011;6608;48.790;9.198;2023-07-30T09:16:34;147.77;;;65.57;;
13083;SDS011;6608;48.790;9.198;2023-07-30T09:19:01;149.10;;;66.00;;
13083;SDS011;6608;48.790;9.198;2023-07-30T09:21:32;148.30;;;65.60;;
13083;SDS011;6608;48.790;9.198;2023-07-30T09:24:00;150.77;;;65.43;;
13083;SDS011;6608;48.790;9.198;2023-07-30T09:26:31;148.67;;;65.77;;
13083;SDS011;6608;48.790;9.198;2023-07-30T09:29:07;148.13;;;65.57;;
13083;SDS011;6608;48.790;9.198;2023-07-30T09:31:40;148.20;;;65.90;;
13083;SDS011;6608;48.790;9.198;2023-07-30T09:34:09;148.63;;;65.33;;
13083;SDS011;6608;48.790;9.198;2023-07-30T09:36:36;148.33;;;65.43;;
13083;SDS011;6608;48.790;9.198;2023-07-30T09:39:03;148.50;;;65.77;;
13083;SDS011;6608;48.790;9.198;2023-07-30T09:41:29;147.60;;;65.17;;
13083;SDS011;6608;48.790;9.198;2023-07-30T09:43:57;150.87;;;65.27;;
13083;SDS011;6608;48.790;9.198;2023-07-30T09:46:24;147.77;;;65.30;;
13083;SDS011;6608;48.790;9.198;2023-07-30T09:48:55;149.07;;;65.10;;
13083;SDS011;6608;48.790;9.198;2023-07-30T09:51:21;148.70;;;64.83;;
13083;SDS011;6608;48.790;9.198;2023-07-30T09:53:49;149.30;;;65.13;;
13083;SDS011;6608;48.790;9.198;2023-07-30T09:56:16;148.37;;;64.97;;
13083;SDS011;6608;48.790;9.198;2023-07-30T09:58:42;147.60;;;64.60;;
13083;SDS011;6608;48.790;9.198;2023-07-30T10:01:08;150.23;;;65.20;;
13083;SDS011;6608;48.790;9.198;2023-07-30T10:03:35;147.80;;;65.07;;
13083;SDS011;6608;48.790;9.198;2023-07-30T10:06:02;149.97;;;65.60;;
13083;SDS011;6608;48.790;9.198;2023-07-30T10:08:29;147.30;;;65.00;;
13083;SDS011;6608;48.790;9.198;2023-07-30T10:10:57;150.37;;;65.43;;
13083;SDS011;6608;48.790;9.198;2023-07-30T10:13:25;147.80;;;65.50;;
13083;SDS011;6608;48.790;9.198;2023-07-30T10:15:52;148.67;;;65.80;;
13083;SDS011;6608;48.790;9.198;2023-07-30T10:18:18;149.33;;;66.50;;
13083;SDS011;6608;48.790;9.198;2023-07-30T10:20:51;149.20;;;66.60;;
13083;SDS011;6608;48.790;9.198;2023-07-30T10:23:18;149.03;;;66.30;;
13083;SDS011;6608;48.790;9.198;2023-07-30T10:25:45;150.70;;;66.33;;
13083;SDS011;6608;48.790;9.198;2023-07-30T10:28:27;151.43;;;67.00;;
13083;SDS011;6608;48.790;9.198;2023-07-30T10:30:57;148.53;;;65.97;;
13083;SDS011;6608;48.790;9.198;2023-07-30T10:33:23;148.60;;;65.97;;
13083;SDS011;6608;48.790;9.198;2023-07-30T10:35:54;153.67;;;66.50;;
13083;SDS011;6608;48.790;9.198;2023-07-30T10:38:21;155.03;;;68.43;;
13083;SDS011;6608;48.790;9.198;2023-07-30T10:40:59;150.03;;;67.10;;
13083;SDS011;6608;48.790;9.198;2023-07-30T10:43:28;150.77;;;67.37;;
13083;SDS011;6608;48.790;9.198;2023-07-30T10:45:55;149.03;;;67.17;;
13083;SDS011;6608;48.790;9.198;2023-07-30T10:48:29;151.57;;;68.30;;
13083;SDS011;6608;48.790;9.198;2023-07-30T10:50:55;150.23;;;67.87;;
13083;SDS011;6608;48.790;9.198;2023-07-30T10:53:21;150.07;;;68.07;;
13083;SDS011;6608;48.790;9.198;2023-07-30T10:55:48;152.30;;;68.13;;
13083;SDS011;6608;48.790;9.198;2023-07-30T10:58:14;150.27;;;68.57;;
13083;SDS011;6608;48.790;9.198;2023-07-30T11:00:43;151.40;;;69.27;;
13083;SDS011;6608;48.790;9.198;2023-07-30T11:03:09;152.60;;;70.80;;
13083;SDS011;6608;48.790;9.198;2023-07-30T11:05:37;152.20;;;69.70;;
13083;SDS011;6608;48.790;9.198;2023-07-30T11:08:04;150.43;;;69.43;;
13083;SDS011;6608;48.790;9.198;2023-07-30T11:10:30;151.73;;;69.90;;
13083;SDS011;6608;48.790;9.198;2023-07-30T11:12:57;152.93;;;69.30;;
13083;SDS011;6608;48.790;9.198;2023-07-30T11:15:23;151.87;;;68.97;;
13083;SDS011;6608;48.790;9.198;2023-07-30T11:17:52;152.47;;;68.77;;
13083;SDS011;6608;48.790;9.198;2023-07-30T11:20:23;151.33;;;68.47;;
13083;SDS011;6608;48.790;9.198;2023-07-30T11:22:51;152.13;;;67.97;;
13083;SDS011;6608;48.790;9.198;2023-07-30T11:25:18;154.00;;;68.63;;
13083;SDS011;6608;48.790;9.198;2023-07-30T11:27:45;155.37;;;69.10;;
13083;SDS011;6608;48.790;9.198;2023-07-30T11:30:11;153.10;;;68.60;;
13083;SDS011;6608;48.790;9.198;2023-07-30T11:32:38;151.43;;;67.70;;
13083;SDS011;6608;48.790;9.198;2023-07-30T11:35:06;152.37;;;68.47;;
13083;SDS011;6608;48.790;9.198;2023-07-30T11:37:33;153.27;;;68.37;;
13083;SDS011;6608;48.790;9.198;2023-07-30T11:39:59;151.77;;;68.67;;
13083;SDS011;6608;48.790;9.198;2023-07-30T11:42:26;152.77;;;69.27;;
13083;SDS011;6608;48.790;9.198;2023-07-30T11:44:55;152.20;;;69.27;;
13083;SDS011;6608;48.790;9.198;2023-07-30T11:47:21;152.20;;;69.17;;
13083;SDS011;6608;48.790;9.198;2023-07-30T11:49:54;154.13;;;69.67;;
13083;SDS011;6608;48.790;9.198;2023-07-30T11:52:22;152.67;;;69.37;;
13083;SDS011;6608;48.790;9.198;2023-07-30T11:54:59;150.87;;;69.17;;
13083;SDS011;6608;48.790;9.198;2023-07-30T11:57:32;152.13;;;69.47;;
13083;SDS011;6608;48.790;9.198;2023-07-30T11:59:58;153.20;;;69.83;;
13083;SDS011;6608;48.790;9.198;2023-07-30T12:02:25;152.30;;;70.03;;
13083;SDS011;6608;48.790;9.198;2023-07-30T12:04:51;156.90;;;68.97;;
13083;SDS011;6608;48.790;9.198;2023-07-30T12:07:23;151.93;;;70.00;;
13083;SDS011;6608;48.790;9.198;2023-07-30T12:09:50;150.27;;;69.17;;
13083;SDS011;6608;48.790;9.198;2023-07-30T12:12:16;155.47;;;69.90;;
13083;SDS011;6608;48.790;9.198;2023-07-30T12:14:43;150.57;;;68.97;;
13083;SDS011;6608;48.790;9.198;2023-07-30T12:17:10;153.20;;;69.87;;
13083;SDS011;6608;48.790;9.198;2023-07-30T12:19:37;151.13;;;69.27;;
13083;SDS011;6608;48.790;9.198;2023-07-30T12:22:03;152.97;;;69.53;;
13083;SDS011;6608;48.790;9.198;2023-07-30T12:24:31;152.03;;;70.10;;
13083;SDS011;6608;48.790;9.198;2023-07-30T12:26:57;151.60;;;69.27;;
13083;SDS011;6608;48.790;9.198;2023-07-30T12:29:24;153.17;;;69.53;;
13083;SDS011;6608;48.790;9.198;2023-07-30T12:31:50;153.10;;;70.80;;
13083;SDS011;6608;48.790;9.198;2023-07-30T12:34:18;152.60;;;69.30;;
13083;SDS011;6608;48.790;9.198;2023-07-30T12:36:45;153.23;;;69.47;;
13083;SDS011;6608;48.790;9.198;2023-07-30T12:39:11;151.67;;;69.90;;
13083;SDS011;6608;48.790;9.198;2023-07-30T12:41:39;151.90;;;68.73;;
13083;SDS011;6608;48.790;9.198;2023-07-30T12:44:06;154.57;;;69.40;;
13083;SDS011;6608;48.790;9.198;2023-07-30T12:46:34;153.07;;;69.73;;
13083;SDS011;6608;48.790;9.198;2023-07-30T12:49:01;156.60;;;69.17;;
13083;SDS011;6608;48.790;9.198;2023-07-30T12:51:29;154.67;;;69.03;;
13083;SDS011;6608;48.790;9.198;2023-07-30T12:53:55;153.70;;;69.23;;
13083;SDS011;6608;48.790;9.198;2023-07-30T12:56:22;159.37;;;69.40;;
13083;SDS011;6608;48.790;9.198;2023-07-30T12:58:50;154.23;;;70.30;;
13083;SDS011;6608;48.790;9.198;2023-07-30T13:01:16;153.60;;;69.37;;
13083;SDS011;6608;48.790;9.198;2023-07-30T13:03:43;155.23;;;69.00;;
13083;SDS011;6608;48.790;9.198;2023-07-30T13:06:11;154.70;;;69.03;;
13083;SDS011;6608;48.790;9.198;2023-07-30T13:08:38;153.60;;;68.37;;
13083;SDS011;6608;48.790;9.198;2023-07-30T13:11:05;155.57;;;69.27;;
13083;SDS011;6608;48.790;9.198;2023-07-30T13:13:31;153.10;;;68.07;;
13083;SDS011;6608;48.790;9.198;2023-07-30T13:15:59;158.43;;;68.97;;
13083;SDS011;6608;48.790;9.198;2023-07-30T13:18:26;156.77;;;68.53;;
13083;SDS011;6608;48.790;9.198;2023-07-30T13:20:53;154.30;;;68.53;;
13083;SDS011;6608;48.790;9.198;2023-07-30T13:23:19;156.03;;;68.50;;
13083;SDS011;6608;48.790;9.198;2023-07-30T13:25:46;155.23;;;69.37;;
13083;SDS011;6608;48.790;9.198;2023-07-30T13:28:12;155.97;;;68.50;;
13083;SDS011;6608;48.790;9.198;2023-07-30T13:30:39;155.50;;;68.67;;
13083;SDS011;6608;48.790;9.198;2023-07-30T13:33:07;154.37;;;67.90;;
13083;SDS011;6608;48.790;9.198;2023-07-30T13:35:33;158.97;;;67.87;;
13083;SDS011;6608;48.790;9.198;2023-07-30T13:38:00;157.20;;;67.90;;
13083;SDS011;6608;48.790;9.198;2023-07-30T13:40:26;158.00;;;67.87;;
13083;SDS011;6608;48.790;9.198;2023-07-30T13:42:55;153.87;;;67.17;;
13083;SDS011;6608;48.790;9.198;2023-07-30T13:45:21;155.07;;;67.57;;
13083;SDS011;6608;48.790;9.198;2023-07-30T13:47:48;155.17;;;67.33;;
13083;SDS011;6608;48.790;9.198;2023-07-30T13:50:15;155.93;;;67.80;;
13083;SDS011;6608;48.790;9.198;2023-07-30T13:52:43;154.67;;;67.47;;
13083;SDS011;6608;48.790;9.198;2023-07-30T13:55:09;155.23;;;67.33;;
13083;SDS011;6608;48.790;9.198;2023-07-30T13:57:35;157.17;;;68.97;;
13083;SDS011;6608;48.790;9.198;2023-07-30T14:00:02;159.13;;;69.03;;
13083;SDS011;6608;48.790;9.198;2023-07-30T14:02:30;159.30;;;68.40;;
13083;SDS011;6608;48.790;9.198;2023-07-30T14:04:57;159.20;;;68.07;;
13083;SDS011;6608;48.790;9.198;2023-07-30T14:07:25;161.27;;;68.80;;
13083;SDS011;6608;48.790;9.198;2023-07-30T14:09:51;161.63;;;68.57;;
13083;SDS011;6608;48.790;9.198;2023-07-30T14:12:18;162.80;;;69.00;;
13083;SDS011;6608;48.790;9.198;2023-07-30T14:14:44;161.37;;;68.47;;
13083;SDS011;6608;48.790;9.198;2023-07-30T14:17:10;162.23;;;68.33;;
13083;SDS011;6608;48.790;9.198;2023-07-30T14:19:37;162.27;;;68.43;;